sensor_id;sensor_type;location;lat;lon;timestamp;P1;durP1;ratioP1;P2;durP2;ratioP2
56333;SDS011;42240;53.626;55.886;2023-02-17T00:00:42;0.50;;;0.50;;
56333;SDS011;42240;53.626;55.886;2023-02-17T00:02:15;0.50;;;0.50;;
56333;SDS011;42240;53.626;55.886;2023-02-17T00:03:49;0.43;;;0.43;;
56333;SDS011;42240;53.626;55.886;2023-02-17T00:05:24;0.50;;;0.50;;
56333;SDS011;42240;53.626;55.886;2023-02-17T00:07:00;0.50;;;0.50;;
56333;SDS011;42240;53.626;55.886;2023-02-17T00:08:33;0.45;;;0.45;;
56333;SDS011;42240;53.626;55.886;2023-02-17T00:10:07;0.50;;;0.50;;
56333;SDS011;42240;53.626;55.886;2023-02-17T00:11:41;0.30;;;0.30;;
56333;SDS011;42240;53.626;55.886;2023-02-17T00:13:14;0.40;;;0.40;;
56333;SDS011;42240;53.626;55.886;2023-02-17T00:14:47;0.40;;;0.40;;
56333;SDS011;42240;53.626;55.886;2023-02-17T00:16:22;0.40;;;0.40;;
56333;SDS011;42240;53.626;55.886;2023-02-17T00:17:56;0.45;;;0.45;;
56333;SDS011;42240;53.626;55.886;2023-02-17T00:19:29;0.40;;;0.40;;
56333;SDS011;42240;53.626;55.886;2023-02-17T00:21:19;0.40;;;0.40;;
56333;SDS011;42240;53.626;55.886;2023-02-17T00:22:54;0.40;;;0.40;;
56333;SDS011;42240;53.626;55.886;2023-02-17T00:24:28;0.50;;;0.50;;
56333;SDS011;42240;53.626;55.886;2023-02-17T00:26:05;0.40;;;0.40;;
56333;SDS011;42240;53.626;55.886;2023-02-17T00:27:39;0.50;;;0.50;;
56333;SDS011;42240;53.626;55.886;2023-02-17T00:29:13;0.40;;;0.40;;
56333;SDS011;42240;53.626;55.886;2023-02-17T00:30:46;0.40;;;0.40;;
56333;SDS011;42240;53.626;55.886;2023-02-17T00:32:19;0.50;;;0.50;;
56333;SDS011;42240;53.626;55.886;2023-02-17T00:33:57;0.40;;;0.40;;
56333;SDS011;42240;53.626;55.886;2023-02-17T00:35:30;0.40;;;0.40;;
56333;SDS011;42240;53.626;55.886;2023-02-17T00:37:03;0.47;;;0.47;;
56333;SDS011;42240;53.626;55.886;2023-02-17T00:38:36;0.40;;;0.40;;
56333;SDS011;42240;53.626;55.886;2023-02-17T00:40:11;0.50;;;0.50;;
56333;SDS011;42240;53.626;55.886;2023-02-17T00:41:45;0.40;;;0.40;;
56333;SDS011;42240;53.626;55.886;2023-02-17T00:43:19;0.50;;;0.50;;
56333;SDS011;42240;53.626;55.886;2023-02-17T00:44:53;0.40;;;0.40;;
56333;SDS011;42240;53.626;55.886;2023-02-17T00:46:26;0.40;;;0.40;;
56333;SDS011;42240;53.626;55.886;2023-02-17T00:48:00;0.40;;;0.40;;
56333;SDS011;42240;53.626;55.886;2023-02-17T00:49:33;0.50;;;0.50;;
56333;SDS011;42240;53.626;55.886;2023-02-17T00:51:07;0.40;;;0.40;;
56333;SDS011;42240;53.626;55.886;2023-02-17T00:52:40;0.50;;;0.50;;
56333;SDS011;42240;53.626;55.886;2023-02-17T00:54:14;0.40;;;0.40;;
56333;SDS011;42240;53.626;55.886;2023-02-17T00:55:51;0.40;;;0.40;;
56333;SDS011;42240;53.626;55.886;2023-02-17T00:57:24;0.50;;;0.50;;
56333;SDS011;42240;53.626;55.886;2023-02-17T00:58:57;0.50;;;0.50;;
56333;SDS011;42240;53.626;55.886;2023-02-17T01:00:31;0.40;;;0.40;;
56333;SDS011;42240;53.626;55.886;2023-02-17T01:02:05;0.45;;;0.45;;
56333;SDS011;42240;53.626;55.886;2023-02-17T01:03:40;0.45;;;0.45;;
56333;SDS011;42240;53.626;55.886;2023-02-17T01:05:14;0.50;;;0.50;;
56333;SDS011;42240;53.626;55.886;2023-02-17T01:06:50;0.50;;;0.50;;
56333;SDS011;42240;53.626;55.886;2023-02-17T01:08:27;0.50;;;0.50;;
56333;SDS011;42240;53.626;55.886;2023-02-17T01:10:03;0.50;;;0.50;;
56333;SDS011;42240;53.626;55.886;2023-02-17T01:11:37;0.40;;;0.40;;
56333;SDS011;42240;53.626;55.886;2023-02-17T01:13:12;0.50;;;0.50;;
56333;SDS011;42240;53.626;55.886;2023-02-17T01:14:48;0.40;;;0.40;;
56333;SDS011;42240;53.626;55.886;2023-02-17T01:16:25;0.50;;;0.50;;
56333;SDS011;42240;53.626;55.886;2023-02-17T01:18:03;0.40;;;0.40;;
56333;SDS011;42240;53.626;55.886;2023-02-17T01:19:36;0.45;;;0.45;;
56333;SDS011;42240;53.626;55.886;2023-02-17T01:21:16;0.40;;;0.40;;
56333;SDS011;42240;53.626;55.886;2023-02-17T01:22:54;0.50;;;0.50;;
56333;SDS011;42240;53.626;55.886;2023-02-17T01:24:27;0.47;;;0.47;;
56333;SDS011;42240;53.626;55.886;2023-02-17T01:26:00;0.50;;;0.50;;
56333;SDS011;42240;53.626;55.886;2023-02-17T01:27:34;0.50;;;0.50;;
56333;SDS011;42240;53.626;55.886;2023-02-17T01:29:06;0.40;;;0.40;;
56333;SDS011;42240;53.626;55.886;2023-02-17T01:30:40;0.50;;;0.50;;
56333;SDS011;42240;53.626;55.886;2023-02-17T01:32:13;0.50;;;0.50;;
56333;SDS011;42240;53.626;55.886;2023-02-17T01:33:46;0.50;;;0.50;;
56333;SDS011;42240;53.626;55.886;2023-02-17T01:35:19;0.40;;;0.40;;
56333;SDS011;42240;53.626;55.886;2023-02-17T01:36:53;0.40;;;0.40;;
56333;SDS011;42240;53.626;55.886;2023-02-17T01:38:26;0.47;;;0.47;;
56333;SDS011;42240;53.626;55.886;2023-02-17T01:39:59;0.50;;;0.50;;
56333;SDS011;42240;53.626;55.886;2023-02-17T01:41:32;0.50;;;0.50;;
56333;SDS011;42240;53.626;55.886;2023-02-17T01:43:05;0.50;;;0.50;;
56333;SDS011;42240;53.626;55.886;2023-02-17T01:48:24;0.40;;;0.40;;
56333;SDS011;42240;53.626;55.886;2023-02-17T01:50:04;0.47;;;0.47;;
56333;SDS011;42240;53.626;55.886;2023-02-17T01:51:37;0.40;;;0.40;;
56333;SDS011;42240;53.626;55.886;2023-02-17T01:53:11;0.50;;;0.50;;
56333;SDS011;42240;53.626;55.886;2023-02-17T01:54:57;0.50;;;0.50;;
56333;SDS011;42240;53.626;55.886;2023-02-17T01:56:32;0.43;;;0.43;;
56333;SDS011;42240;53.626;55.886;2023-02-17T01:58:10;0.40;;;0.40;;
56333;SDS011;42240;53.626;55.886;2023-02-17T01:59:45;0.40;;;0.40;;
56333;SDS011;42240;53.626;55.886;2023-02-17T02:01:19;0.50;;;0.50;;
56333;SDS011;42240;53.626;55.886;2023-02-17T02:02:53;0.50;;;0.50;;
56333;SDS011;42240;53.626;55.886;2023-02-17T02:04:28;0.50;;;0.50;;
56333;SDS011;42240;53.626;55.886;2023-02-17T02:06:08;0.43;;;0.43;;
56333;SDS011;42240;53.626;55.886;2023-02-17T02:07:45;0.40;;;0.40;;
56333;SDS011;42240;53.626;55.886;2023-02-17T02:09:30;0.40;;;0.40;;
56333;SDS011;42240;53.626;55.886;2023-02-17T02:11:07;0.50;;;0.50;;
56333;SDS011;42240;53.626;55.886;2023-02-17T02:12:40;0.50;;;0.50;;
56333;SDS011;42240;53.626;55.886;2023-02-17T02:14:14;0.50;;;0.50;;
56333;SDS011;42240;53.626;55.886;2023-02-17T02:24:30;0.50;;;0.50;;
56333;SDS011;42240;53.626;55.886;2023-02-17T02:29:13;0.50;;;0.50;;
56333;SDS011;42240;53.626;55.886;2023-02-17T02:33:14;0.50;;;0.50;;
56333;SDS011;42240;53.626;55.886;2023-02-17T02:34:58;0.40;;;0.40;;
56333;SDS011;42240;53.626;55.886;2023-02-17T02:38:51;0.40;;;0.40;;
56333;SDS011;42240;53.626;55.886;2023-02-17T02:40:31;0.50;;;0.50;;
56333;SDS011;42240;53.626;55.886;2023-02-17T02:42:09;0.47;;;0.47;;
56333;SDS011;42240;53.626;55.886;2023-02-17T02:43:46;0.50;;;0.50;;
56333;SDS011;42240;53.626;55.886;2023-02-17T02:45:20;0.43;;;0.43;;
56333;SDS011;42240;53.626;55.886;2023-02-17T02:49:11;0.40;;;0.40;;
56333;SDS011;42240;53.626;55.886;2023-02-17T02:53:02;0.50;;;0.50;;
56333;SDS011;42240;53.626;55.886;2023-02-17T03:02:59;0.50;;;0.50;;
56333;SDS011;42240;53.626;55.886;2023-02-17T03:06:52;0.50;;;0.50;;
56333;SDS011;42240;53.626;55.886;2023-02-17T03:10:50;0.50;;;0.50;;
56333;SDS011;42240;53.626;55.886;2023-02-17T03:12:25;0.50;;;0.50;;
56333;SDS011;42240;53.626;55.886;2023-02-17T03:14:00;0.40;;;0.40;;
56333;SDS011;42240;53.626;55.886;2023-02-17T03:15:33;0.50;;;0.50;;
56333;SDS011;42240;53.626;55.886;2023-02-17T03:17:06;0.40;;;0.40;;
56333;SDS011;42240;53.626;55.886;2023-02-17T03:18:40;0.50;;;0.50;;
56333;SDS011;42240;53.626;55.886;2023-02-17T03:20:13;0.47;;;0.47;;
56333;SDS011;42240;53.626;55.886;2023-02-17T03:21:56;0.50;;;0.50;;
56333;SDS011;42240;53.626;55.886;2023-02-17T03:23:36;0.50;;;0.50;;
56333;SDS011;42240;53.626;55.886;2023-02-17T03:25:10;0.45;;;0.45;;
56333;SDS011;42240;53.626;55.886;2023-02-17T03:26:44;0.50;;;0.50;;
56333;SDS011;42240;53.626;55.886;2023-02-17T03:28:16;0.50;;;0.50;;
56333;SDS011;42240;53.626;55.886;2023-02-17T03:29:51;0.47;;;0.47;;
56333;SDS011;42240;53.626;55.886;2023-02-17T03:31:24;0.40;;;0.40;;
56333;SDS011;42240;53.626;55.886;2023-02-17T03:33:01;0.50;;;0.50;;
56333;SDS011;42240;53.626;55.886;2023-02-17T03:34:34;0.50;;;0.50;;
56333;SDS011;42240;53.626;55.886;2023-02-17T03:36:07;0.50;;;0.50;;
56333;SDS011;42240;53.626;55.886;2023-02-17T03:37:40;0.50;;;0.50;;
56333;SDS011;42240;53.626;55.886;2023-02-17T03:39:13;0.50;;;0.50;;
56333;SDS011;42240;53.626;55.886;2023-02-17T03:40:47;0.50;;;0.50;;
56333;SDS011;42240;53.626;55.886;2023-02-17T03:42:21;0.40;;;0.40;;
56333;SDS011;42240;53.626;55.886;2023-02-17T03:43:54;0.50;;;0.50;;
56333;SDS011;42240;53.626;55.886;2023-02-17T03:45:27;0.50;;;0.50;;
56333;SDS011;42240;53.626;55.886;2023-02-17T03:47:00;0.50;;;0.50;;
56333;SDS011;42240;53.626;55.886;2023-02-17T03:48:33;0.50;;;0.50;;
56333;SDS011;42240;53.626;55.886;2023-02-17T03:50:06;0.50;;;0.50;;
56333;SDS011;42240;53.626;55.886;2023-02-17T03:51:40;0.50;;;0.50;;
56333;SDS011;42240;53.626;55.886;2023-02-17T03:53:13;0.50;;;0.50;;
56333;SDS011;42240;53.626;55.886;2023-02-17T03:54:47;0.40;;;0.40;;
56333;SDS011;42240;53.626;55.886;2023-02-17T03:56:20;0.50;;;0.50;;
56333;SDS011;42240;53.626;55.886;2023-02-17T03:57:53;0.40;;;0.40;;
56333;SDS011;42240;53.626;55.886;2023-02-17T03:59:26;0.50;;;0.50;;
56333;SDS011;42240;53.626;55.886;2023-02-17T04:01:00;0.40;;;0.40;;
56333;SDS011;42240;53.626;55.886;2023-02-17T04:02:33;0.50;;;0.50;;
56333;SDS011;42240;53.626;55.886;2023-02-17T04:04:06;0.50;;;0.50;;
56333;SDS011;42240;53.626;55.886;2023-02-17T04:05:39;0.50;;;0.50;;
56333;SDS011;42240;53.626;55.886;2023-02-17T04:07:15;0.40;;;0.40;;
56333;SDS011;42240;53.626;55.886;2023-02-17T04:08:48;0.50;;;0.50;;
56333;SDS011;42240;53.626;55.886;2023-02-17T04:10:21;0.47;;;0.47;;
56333;SDS011;42240;53.626;55.886;2023-02-17T04:11:54;0.40;;;0.40;;
56333;SDS011;42240;53.626;55.886;2023-02-17T04:13:27;0.40;;;0.40;;
56333;SDS011;42240;53.626;55.886;2023-02-17T04:15:00;0.50;;;0.50;;
56333;SDS011;42240;53.626;55.886;2023-02-17T04:16:33;0.50;;;0.50;;
56333;SDS011;42240;53.626;55.886;2023-02-17T04:18:06;0.50;;;0.50;;
56333;SDS011;42240;53.626;55.886;2023-02-17T04:19:39;0.50;;;0.50;;
56333;SDS011;42240;53.626;55.886;2023-02-17T04:21:12;0.50;;;0.50;;
56333;SDS011;42240;53.626;55.886;2023-02-17T04:22:45;0.50;;;0.50;;
56333;SDS011;42240;53.626;55.886;2023-02-17T04:24:19;0.50;;;0.50;;
56333;SDS011;42240;53.626;55.886;2023-02-17T04:25:52;0.47;;;0.47;;
56333;SDS011;42240;53.626;55.886;2023-02-17T04:27:26;0.50;;;0.50;;
56333;SDS011;42240;53.626;55.886;2023-02-17T04:28:59;0.40;;;0.40;;
56333;SDS011;42240;53.626;55.886;2023-02-17T04:30:32;0.50;;;0.50;;
56333;SDS011;42240;53.626;55.886;2023-02-17T04:32:06;0.50;;;0.50;;
56333;SDS011;42240;53.626;55.886;2023-02-17T04:33:40;0.50;;;0.50;;
56333;SDS011;42240;53.626;55.886;2023-02-17T04:35:12;0.50;;;0.50;;
56333;SDS011;42240;53.626;55.886;2023-02-17T04:36:45;0.50;;;0.50;;
56333;SDS011;42240;53.626;55.886;2023-02-17T04:38:18;0.50;;;0.50;;
56333;SDS011;42240;53.626;55.886;2023-02-17T04:39:52;0.50;;;0.50;;
56333;SDS011;42240;53.626;55.886;2023-02-17T04:41:25;0.40;;;0.40;;
56333;SDS011;42240;53.626;55.886;2023-02-17T04:42:58;0.47;;;0.47;;
56333;SDS011;42240;53.626;55.886;2023-02-17T04:44:31;0.50;;;0.50;;
56333;SDS011;42240;53.626;55.886;2023-02-17T04:46:04;0.50;;;0.50;;
56333;SDS011;42240;53.626;55.886;2023-02-17T04:47:37;0.50;;;0.50;;
56333;SDS011;42240;53.626;55.886;2023-02-17T04:49:11;0.40;;;0.40;;
56333;SDS011;42240;53.626;55.886;2023-02-17T04:50:44;0.50;;;0.50;;
56333;SDS011;42240;53.626;55.886;2023-02-17T04:52:17;0.40;;;0.40;;
56333;SDS011;42240;53.626;55.886;2023-02-17T04:53:50;0.50;;;0.50;;
56333;SDS011;42240;53.626;55.886;2023-02-17T04:55:23;0.50;;;0.50;;
56333;SDS011;42240;53.626;55.886;2023-02-17T04:56:56;0.40;;;0.40;;
56333;SDS011;42240;53.626;55.886;2023-02-17T04:58:29;0.40;;;0.40;;
56333;SDS011;42240;53.626;55.886;2023-02-17T05:00:03;0.40;;;0.40;;
56333;SDS011;42240;53.626;55.886;2023-02-17T05:01:37;0.50;;;0.50;;
56333;SDS011;42240;53.626;55.886;2023-02-17T05:03:10;0.45;;;0.45;;
56333;SDS011;42240;53.626;55.886;2023-02-17T05:04:43;0.40;;;0.40;;
56333;SDS011;42240;53.626;55.886;2023-02-17T05:06:17;0.40;;;0.40;;
56333;SDS011;42240;53.626;55.886;2023-02-17T05:07:50;0.40;;;0.40;;
56333;SDS011;42240;53.626;55.886;2023-02-17T05:09:22;0.40;;;0.40;;
56333;SDS011;42240;53.626;55.886;2023-02-17T05:10:56;0.40;;;0.40;;
56333;SDS011;42240;53.626;55.886;2023-02-17T05:12:29;0.50;;;0.50;;
56333;SDS011;42240;53.626;55.886;2023-02-17T05:14:02;0.43;;;0.43;;
56333;SDS011;42240;53.626;55.886;2023-02-17T05:15:34;0.40;;;0.40;;
56333;SDS011;42240;53.626;55.886;2023-02-17T05:17:08;0.40;;;0.40;;
56333;SDS011;42240;53.626;55.886;2023-02-17T05:18:41;0.40;;;0.40;;
56333;SDS011;42240;53.626;55.886;2023-02-17T05:20:14;0.40;;;0.40;;
56333;SDS011;42240;53.626;55.886;2023-02-17T05:21:47;0.43;;;0.43;;
56333;SDS011;42240;53.626;55.886;2023-02-17T05:23:20;0.40;;;0.40;;
56333;SDS011;42240;53.626;55.886;2023-02-17T05:24:53;0.40;;;0.40;;
56333;SDS011;42240;53.626;55.886;2023-02-17T05:26:26;0.40;;;0.40;;
56333;SDS011;42240;53.626;55.886;2023-02-17T05:28:00;0.50;;;0.50;;
56333;SDS011;42240;53.626;55.886;2023-02-17T05:29:33;0.40;;;0.40;;
56333;SDS011;42240;53.626;55.886;2023-02-17T05:31:06;0.40;;;0.40;;
56333;SDS011;42240;53.626;55.886;2023-02-17T05:32:39;0.40;;;0.40;;
56333;SDS011;42240;53.626;55.886;2023-02-17T05:34:12;0.40;;;0.40;;
56333;SDS011;42240;53.626;55.886;2023-02-17T05:35:45;0.40;;;0.40;;
56333;SDS011;42240;53.626;55.886;2023-02-17T05:37:18;0.40;;;0.40;;
56333;SDS011;42240;53.626;55.886;2023-02-17T05:40:24;0.45;;;0.45;;
56333;SDS011;42240;53.626;55.886;2023-02-17T05:41:57;0.40;;;0.40;;
56333;SDS011;42240;53.626;55.886;2023-02-17T05:43:30;0.40;;;0.40;;
56333;SDS011;42240;53.626;55.886;2023-02-17T05:45:04;0.40;;;0.40;;
56333;SDS011;42240;53.626;55.886;2023-02-17T05:46:37;0.30;;;0.30;;
56333;SDS011;42240;53.626;55.886;2023-02-17T05:48:10;0.32;;;0.32;;
56333;SDS011;42240;53.626;55.886;2023-02-17T05:49:43;0.35;;;0.35;;
56333;SDS011;42240;53.626;55.886;2023-02-17T05:51:16;0.30;;;0.30;;
56333;SDS011;42240;53.626;55.886;2023-02-17T05:52:49;0.32;;;0.32;;
56333;SDS011;42240;53.626;55.886;2023-02-17T05:54:22;0.30;;;0.30;;
56333;SDS011;42240;53.626;55.886;2023-02-17T05:57:27;0.30;;;0.30;;
56333;SDS011;42240;53.626;55.886;2023-02-17T05:59:01;0.30;;;0.30;;
56333;SDS011;42240;53.626;55.886;2023-02-17T06:00:35;0.30;;;0.30;;
56333;SDS011;42240;53.626;55.886;2023-02-17T06:02:08;0.30;;;0.30;;
56333;SDS011;42240;53.626;55.886;2023-02-17T06:05:14;0.30;;;0.30;;
56333;SDS011;42240;53.626;55.886;2023-02-17T06:06:47;0.22;;;0.22;;
56333;SDS011;42240;53.626;55.886;2023-02-17T06:09:53;0.22;;;0.22;;
56333;SDS011;42240;53.626;55.886;2023-02-17T06:12:59;0.20;;;0.20;;
56333;SDS011;42240;53.626;55.886;2023-02-17T06:14:32;0.30;;;0.30;;
56333;SDS011;42240;53.626;55.886;2023-02-17T06:17:38;0.20;;;0.20;;
56333;SDS011;42240;53.626;55.886;2023-02-17T06:19:11;0.20;;;0.20;;
56333;SDS011;42240;53.626;55.886;2023-02-17T06:20:45;0.20;;;0.20;;
56333;SDS011;42240;53.626;55.886;2023-02-17T06:22:18;0.20;;;0.20;;
56333;SDS011;42240;53.626;55.886;2023-02-17T06:25:23;0.20;;;0.20;;
56333;SDS011;42240;53.626;55.886;2023-02-17T06:26:57;0.20;;;0.20;;
56333;SDS011;42240;53.626;55.886;2023-02-17T06:28:30;0.20;;;0.20;;
56333;SDS011;42240;53.626;55.886;2023-02-17T06:30:06;0.20;;;0.20;;
56333;SDS011;42240;53.626;55.886;2023-02-17T06:31:39;0.20;;;0.20;;
56333;SDS011;42240;53.626;55.886;2023-02-17T06:33:13;0.20;;;0.20;;
56333;SDS011;42240;53.626;55.886;2023-02-17T06:34:46;0.20;;;0.20;;
56333;SDS011;42240;53.626;55.886;2023-02-17T06:37:51;0.20;;;0.20;;
56333;SDS011;42240;53.626;55.886;2023-02-17T06:39:25;0.20;;;0.20;;
56333;SDS011;42240;53.626;55.886;2023-02-17T06:40:58;0.20;;;0.20;;
56333;SDS011;42240;53.626;55.886;2023-02-17T06:42:31;0.20;;;0.20;;
56333;SDS011;42240;53.626;55.886;2023-02-17T06:45:37;0.20;;;0.20;;
56333;SDS011;42240;53.626;55.886;2023-02-17T06:47:10;0.20;;;0.20;;
56333;SDS011;42240;53.626;55.886;2023-02-17T06:48:43;0.20;;;0.20;;
56333;SDS011;42240;53.626;55.886;2023-02-17T06:50:16;0.20;;;0.20;;
56333;SDS011;42240;53.626;55.886;2023-02-17T06:51:49;0.30;;;0.30;;
56333;SDS011;42240;53.626;55.886;2023-02-17T06:53:22;0.30;;;0.30;;
56333;SDS011;42240;53.626;55.886;2023-02-17T06:56:28;0.30;;;0.30;;
56333;SDS011;42240;53.626;55.886;2023-02-17T06:58:01;0.30;;;0.30;;
56333;SDS011;42240;53.626;55.886;2023-02-17T06:59:34;0.20;;;0.20;;
56333;SDS011;42240;53.626;55.886;2023-02-17T07:01:13;0.25;;;0.25;;
56333;SDS011;42240;53.626;55.886;2023-02-17T07:02:48;0.20;;;0.20;;
56333;SDS011;42240;53.626;55.886;2023-02-17T07:04:21;0.20;;;0.20;;
56333;SDS011;42240;53.626;55.886;2023-02-17T07:05:57;0.30;;;0.30;;
56333;SDS011;42240;53.626;55.886;2023-02-17T07:07:30;0.30;;;0.30;;
56333;SDS011;42240;53.626;55.886;2023-02-17T07:09:03;0.30;;;0.30;;
56333;SDS011;42240;53.626;55.886;2023-02-17T07:12:09;0.30;;;0.30;;
56333;SDS011;42240;53.626;55.886;2023-02-17T07:13:42;0.30;;;0.30;;
56333;SDS011;42240;53.626;55.886;2023-02-17T07:15:15;0.30;;;0.30;;
56333;SDS011;42240;53.626;55.886;2023-02-17T07:16:49;0.40;;;0.40;;
56333;SDS011;42240;53.626;55.886;2023-02-17T07:18:22;0.30;;;0.30;;
56333;SDS011;42240;53.626;55.886;2023-02-17T07:19:55;0.32;;;0.32;;
56333;SDS011;42240;53.626;55.886;2023-02-17T07:21:28;0.30;;;0.30;;
56333;SDS011;42240;53.626;55.886;2023-02-17T07:23:01;0.30;;;0.30;;
56333;SDS011;42240;53.626;55.886;2023-02-17T07:24:34;0.40;;;0.40;;
56333;SDS011;42240;53.626;55.886;2023-02-17T07:26:10;0.35;;;0.35;;
56333;SDS011;42240;53.626;55.886;2023-02-17T07:27:44;0.40;;;0.40;;
56333;SDS011;42240;53.626;55.886;2023-02-17T07:29:16;0.40;;;0.40;;
56333;SDS011;42240;53.626;55.886;2023-02-17T07:30:50;0.40;;;0.40;;
56333;SDS011;42240;53.626;55.886;2023-02-17T07:32:23;0.32;;;0.32;;
56333;SDS011;42240;53.626;55.886;2023-02-17T07:33:56;0.40;;;0.40;;
56333;SDS011;42240;53.626;55.886;2023-02-17T07:35:29;0.40;;;0.40;;
56333;SDS011;42240;53.626;55.886;2023-02-17T07:37:02;0.40;;;0.40;;
56333;SDS011;42240;53.626;55.886;2023-02-17T07:38:35;0.38;;;0.38;;
56333;SDS011;42240;53.626;55.886;2023-02-17T07:40:09;0.30;;;0.30;;
56333;SDS011;42240;53.626;55.886;2023-02-17T07:41:43;0.40;;;0.40;;
56333;SDS011;42240;53.626;55.886;2023-02-17T07:43:17;0.40;;;0.40;;
56333;SDS011;42240;53.626;55.886;2023-02-17T07:44:50;0.40;;;0.40;;
56333;SDS011;42240;53.626;55.886;2023-02-17T07:46:23;0.40;;;0.40;;
56333;SDS011;42240;53.626;55.886;2023-02-17T07:47:56;0.40;;;0.40;;
56333;SDS011;42240;53.626;55.886;2023-02-17T07:49:30;0.40;;;0.40;;
56333;SDS011;42240;53.626;55.886;2023-02-17T07:51:04;0.30;;;0.30;;
56333;SDS011;42240;53.626;55.886;2023-02-17T07:52:38;0.30;;;0.30;;
56333;SDS011;42240;53.626;55.886;2023-02-17T07:54:11;0.30;;;0.30;;
56333;SDS011;42240;53.626;55.886;2023-02-17T07:55:44;0.40;;;0.40;;
56333;SDS011;42240;53.626;55.886;2023-02-17T07:57:17;0.30;;;0.30;;
56333;SDS011;42240;53.626;55.886;2023-02-17T07:58:50;0.30;;;0.30;;
56333;SDS011;42240;53.626;55.886;2023-02-17T08:00:23;0.40;;;0.40;;
56333;SDS011;42240;53.626;55.886;2023-02-17T08:01:56;0.40;;;0.40;;
56333;SDS011;42240;53.626;55.886;2023-02-17T08:03:29;0.30;;;0.30;;
56333;SDS011;42240;53.626;55.886;2023-02-17T08:05:02;0.30;;;0.30;;
56333;SDS011;42240;53.626;55.886;2023-02-17T08:06:36;0.30;;;0.30;;
56333;SDS011;42240;53.626;55.886;2023-02-17T08:08:11;0.30;;;0.30;;
56333;SDS011;42240;53.626;55.886;2023-02-17T08:10:02;0.40;;;0.40;;
56333;SDS011;42240;53.626;55.886;2023-02-17T08:11:54;0.30;;;0.30;;
56333;SDS011;42240;53.626;55.886;2023-02-17T08:13:46;0.40;;;0.40;;
56333;SDS011;42240;53.626;55.886;2023-02-17T08:15:19;0.40;;;0.40;;
56333;SDS011;42240;53.626;55.886;2023-02-17T08:16:52;0.40;;;0.40;;
56333;SDS011;42240;53.626;55.886;2023-02-17T08:18:26;0.40;;;0.40;;
56333;SDS011;42240;53.626;55.886;2023-02-17T08:20:03;0.40;;;0.40;;
56333;SDS011;42240;53.626;55.886;2023-02-17T08:21:40;0.40;;;0.40;;
56333;SDS011;42240;53.626;55.886;2023-02-17T08:23:13;0.38;;;0.38;;
56333;SDS011;42240;53.626;55.886;2023-02-17T08:24:46;0.40;;;0.40;;
56333;SDS011;42240;53.626;55.886;2023-02-17T08:26:34;0.40;;;0.40;;
56333;SDS011;42240;53.626;55.886;2023-02-17T08:28:17;0.40;;;0.40;;
56333;SDS011;42240;53.626;55.886;2023-02-17T08:29:50;0.30;;;0.30;;
56333;SDS011;42240;53.626;55.886;2023-02-17T08:31:30;0.40;;;0.40;;
56333;SDS011;42240;53.626;55.886;2023-02-17T08:33:05;0.30;;;0.30;;
56333;SDS011;42240;53.626;55.886;2023-02-17T08:34:38;0.30;;;0.30;;
56333;SDS011;42240;53.626;55.886;2023-02-17T08:36:11;0.40;;;0.40;;
56333;SDS011;42240;53.626;55.886;2023-02-17T08:37:44;0.40;;;0.40;;
56333;SDS011;42240;53.626;55.886;2023-02-17T08:39:17;0.40;;;0.40;;
56333;SDS011;42240;53.626;55.886;2023-02-17T08:40:50;0.30;;;0.30;;
56333;SDS011;42240;53.626;55.886;2023-02-17T08:42:24;0.30;;;0.30;;
56333;SDS011;42240;53.626;55.886;2023-02-17T08:43:58;0.40;;;0.40;;
56333;SDS011;42240;53.626;55.886;2023-02-17T08:45:33;0.30;;;0.30;;
56333;SDS011;42240;53.626;55.886;2023-02-17T08:47:08;0.40;;;0.40;;
56333;SDS011;42240;53.626;55.886;2023-02-17T08:48:41;0.40;;;0.40;;
56333;SDS011;42240;53.626;55.886;2023-02-17T08:50:14;0.38;;;0.38;;
56333;SDS011;42240;53.626;55.886;2023-02-17T08:51:48;0.30;;;0.30;;
56333;SDS011;42240;53.626;55.886;2023-02-17T08:53:22;0.40;;;0.40;;
56333;SDS011;42240;53.626;55.886;2023-02-17T08:54:55;0.40;;;0.40;;
56333;SDS011;42240;53.626;55.886;2023-02-17T08:56:28;0.40;;;0.40;;
56333;SDS011;42240;53.626;55.886;2023-02-17T08:58:02;0.40;;;0.40;;
56333;SDS011;42240;53.626;55.886;2023-02-17T08:59:35;0.40;;;0.40;;
56333;SDS011;42240;53.626;55.886;2023-02-17T09:01:08;0.30;;;0.30;;
56333;SDS011;42240;53.626;55.886;2023-02-17T09:02:42;0.30;;;0.30;;
56333;SDS011;42240;53.626;55.886;2023-02-17T09:04:16;0.35;;;0.35;;
56333;SDS011;42240;53.626;55.886;2023-02-17T09:05:52;0.30;;;0.30;;
56333;SDS011;42240;53.626;55.886;2023-02-17T09:07:28;0.30;;;0.30;;
56333;SDS011;42240;53.626;55.886;2023-02-17T09:09:03;0.30;;;0.30;;
56333;SDS011;42240;53.626;55.886;2023-02-17T09:10:37;0.40;;;0.40;;
56333;SDS011;42240;53.626;55.886;2023-02-17T09:12:10;0.30;;;0.30;;
56333;SDS011;42240;53.626;55.886;2023-02-17T09:13:44;0.30;;;0.30;;
56333;SDS011;42240;53.626;55.886;2023-02-17T09:15:17;0.40;;;0.40;;
56333;SDS011;42240;53.626;55.886;2023-02-17T09:16:50;0.40;;;0.40;;
56333;SDS011;42240;53.626;55.886;2023-02-17T09:18:24;0.40;;;0.40;;
56333;SDS011;42240;53.626;55.886;2023-02-17T09:19:57;0.30;;;0.30;;
56333;SDS011;42240;53.626;55.886;2023-02-17T09:21:31;0.40;;;0.40;;
56333;SDS011;42240;53.626;55.886;2023-02-17T09:23:04;0.30;;;0.30;;
56333;SDS011;42240;53.626;55.886;2023-02-17T09:24:38;0.40;;;0.40;;
56333;SDS011;42240;53.626;55.886;2023-02-17T09:26:12;0.30;;;0.30;;
56333;SDS011;42240;53.626;55.886;2023-02-17T09:27:46;0.40;;;0.40;;
56333;SDS011;42240;53.626;55.886;2023-02-17T09:29:19;0.40;;;0.40;;
56333;SDS011;42240;53.626;55.886;2023-02-17T09:30:52;0.30;;;0.30;;
56333;SDS011;42240;53.626;55.886;2023-02-17T09:32:25;0.32;;;0.32;;
56333;SDS011;42240;53.626;55.886;2023-02-17T09:33:58;0.30;;;0.30;;
56333;SDS011;42240;53.626;55.886;2023-02-17T09:35:31;0.30;;;0.30;;
56333;SDS011;42240;53.626;55.886;2023-02-17T09:37:13;0.32;;;0.32;;
56333;SDS011;42240;53.626;55.886;2023-02-17T09:38:49;0.40;;;0.40;;
56333;SDS011;42240;53.626;55.886;2023-02-17T09:40:25;0.30;;;0.30;;
56333;SDS011;42240;53.626;55.886;2023-02-17T09:42:09;0.40;;;0.40;;
56333;SDS011;42240;53.626;55.886;2023-02-17T09:43:53;0.30;;;0.30;;
56333;SDS011;42240;53.626;55.886;2023-02-17T09:45:28;0.35;;;0.35;;
56333;SDS011;42240;53.626;55.886;2023-02-17T09:47:08;0.40;;;0.40;;
56333;SDS011;42240;53.626;55.886;2023-02-17T09:48:47;0.38;;;0.38;;
56333;SDS011;42240;53.626;55.886;2023-02-17T09:50:24;0.30;;;0.30;;
56333;SDS011;42240;53.626;55.886;2023-02-17T09:52:12;0.30;;;0.30;;
56333;SDS011;42240;53.626;55.886;2023-02-17T09:55:33;0.40;;;0.40;;
56333;SDS011;42240;53.626;55.886;2023-02-17T09:57:13;0.30;;;0.30;;
56333;SDS011;42240;53.626;55.886;2023-02-17T09:58:54;0.32;;;0.32;;
56333;SDS011;42240;53.626;55.886;2023-02-17T10:00:34;0.20;;;0.20;;
56333;SDS011;42240;53.626;55.886;2023-02-17T10:02:13;0.30;;;0.30;;
56333;SDS011;42240;53.626;55.886;2023-02-17T10:04:15;0.30;;;0.30;;
56333;SDS011;42240;53.626;55.886;2023-02-17T10:07:59;0.30;;;0.30;;
56333;SDS011;42240;53.626;55.886;2023-02-17T10:09:44;0.30;;;0.30;;
56333;SDS011;42240;53.626;55.886;2023-02-17T10:11:29;0.30;;;0.30;;
56333;SDS011;42240;53.626;55.886;2023-02-17T10:13:03;0.30;;;0.30;;
56333;SDS011;42240;53.626;55.886;2023-02-17T10:14:58;0.30;;;0.30;;
56333;SDS011;42240;53.626;55.886;2023-02-17T10:16:37;0.35;;;0.35;;
56333;SDS011;42240;53.626;55.886;2023-02-17T10:18:25;0.30;;;0.30;;
56333;SDS011;42240;53.626;55.886;2023-02-17T10:23:42;0.30;;;0.30;;